sensor_id;sensor_type;location;lat;lon;timestamp;pressure;altitude;pressure_sealevel;temperature
12875;BMP180;6505;51.114;13.128;2023-07-08T00:01:50;99979.00;;;25.90
12875;BMP180;6505;51.114;13.128;2023-07-08T00:04:18;99981.00;;;25.90
12875;BMP180;6505;51.114;13.128;2023-07-08T00:06:47;99976.00;;;25.90
12875;BMP180;6505;51.114;13.128;2023-07-08T00:09:15;99982.00;;;25.80
12875;BMP180;6505;51.114;13.128;2023-07-08T00:11:43;99981.00;;;25.80
12875;BMP180;6505;51.114;13.128;2023-07-08T00:14:10;99982.00;;;25.80
12875;BMP180;6505;51.114;13.128;2023-07-08T00:16:40;99980.00;;;25.70
12875;BMP180;6505;51.114;13.128;2023-07-08T00:19:09;99973.00;;;25.70
12875;BMP180;6505;51.114;13.128;2023-07-08T00:21:37;99975.00;;;25.70
12875;BMP180;6505;51.114;13.128;2023-07-08T00:24:05;99979.00;;;25.70
12875;BMP180;6505;51.114;13.128;2023-07-08T00:26:33;99978.00;;;25.60
12875;BMP180;6505;51.114;13.128;2023-07-08T00:29:01;99980.00;;;25.60
12875;BMP180;6505;51.114;13.128;2023-07-08T00:31:30;99970.00;;;25.60
12875;BMP180;6505;51.114;13.128;2023-07-08T00:34:00;99975.00;;;25.50
12875;BMP180;6505;51.114;13.128;2023-07-08T00:36:30;99977.00;;;25.50
12875;BMP180;6505;51.114;13.128;2023-07-08T00:38:59;99980.00;;;25.50
12875;BMP180;6505;51.114;13.128;2023-07-08T00:41:32;99980.00;;;25.50
12875;BMP180;6505;51.114;13.128;2023-07-08T00:44:01;99976.00;;;25.50
12875;BMP180;6505;51.114;13.128;2023-07-08T00:46:38;99984.00;;;25.40
12875;BMP180;6505;51.114;13.128;2023-07-08T00:49:25;99969.00;;;25.30
12875;BMP180;6505;51.114;13.128;2023-07-08T00:51:54;99976.00;;;25.40
12875;BMP180;6505;51.114;13.128;2023-07-08T00:54:22;99972.00;;;25.30
12875;BMP180;6505;51.114;13.128;2023-07-08T00:56:56;99975.00;;;25.30
12875;BMP180;6505;51.114;13.128;2023-07-08T00:59:29;99980.00;;;25.20
12875;BMP180;6505;51.114;13.128;2023-07-08T01:02:05;99977.00;;;25.20
12875;BMP180;6505;51.114;13.128;2023-07-08T01:04:48;99985.00;;;25.20
12875;BMP180;6505;51.114;13.128;2023-07-08T01:07:19;99984.00;;;25.20
12875;BMP180;6505;51.114;13.128;2023-07-08T01:09:55;99978.00;;;25.10
12875;BMP180;6505;51.114;13.128;2023-07-08T01:12:30;99977.00;;;25.10
12875;BMP180;6505;51.114;13.128;2023-07-08T01:15:01;99969.00;;;25.10
12875;BMP180;6505;51.114;13.128;2023-07-08T01:17:30;99970.00;;;25.10
12875;BMP180;6505;51.114;13.128;2023-07-08T01:20:05;99978.00;;;25.00
12875;BMP180;6505;51.114;13.128;2023-07-08T01:22:36;99968.00;;;25.00
12875;BMP180;6505;51.114;13.128;2023-07-08T01:25:06;99962.00;;;25.00
12875;BMP180;6505;51.114;13.128;2023-07-08T01:27:38;99949.00;;;24.90
12875;BMP180;6505;51.114;13.128;2023-07-08T01:30:09;99959.00;;;24.90
12875;BMP180;6505;51.114;13.128;2023-07-08T01:32:44;99955.00;;;24.90
12875;BMP180;6505;51.114;13.128;2023-07-08T01:35:14;99957.00;;;24.90
12875;BMP180;6505;51.114;13.128;2023-07-08T01:37:49;99955.00;;;24.80
12875;BMP180;6505;51.114;13.128;2023-07-08T01:40:28;99950.00;;;24.80
12875;BMP180;6505;51.114;13.128;2023-07-08T01:42:57;99949.00;;;24.80
12875;BMP180;6505;51.114;13.128;2023-07-08T01:45:28;99953.00;;;24.80
12875;BMP180;6505;51.114;13.128;2023-07-08T01:48:02;99947.00;;;24.70
12875;BMP180;6505;51.114;13.128;2023-07-08T01:50:37;99941.00;;;24.70
12875;BMP180;6505;51.114;13.128;2023-07-08T01:53:14;99942.00;;;24.70
12875;BMP180;6505;51.114;13.128;2023-07-08T01:55:43;99946.00;;;24.70
12875;BMP180;6505;51.114;13.128;2023-07-08T01:58:12;99955.00;;;24.70
12875;BMP180;6505;51.114;13.128;2023-07-08T02:00:40;99960.00;;;24.70
12875;BMP180;6505;51.114;13.128;2023-07-08T02:03:08;99951.00;;;24.70
12875;BMP180;6505;51.114;13.128;2023-07-08T02:05:37;99950.00;;;24.60
12875;BMP180;6505;51.114;13.128;2023-07-08T02:08:05;99937.00;;;24.60
12875;BMP180;6505;51.114;13.128;2023-07-08T02:10:34;99934.00;;;24.60
12875;BMP180;6505;51.114;13.128;2023-07-08T02:13:02;99930.00;;;24.60
12875;BMP180;6505;51.114;13.128;2023-07-08T02:15:30;99935.00;;;24.50
12875;BMP180;6505;51.114;13.128;2023-07-08T02:17:59;99931.00;;;24.50
12875;BMP180;6505;51.114;13.128;2023-07-08T02:20:27;99931.00;;;24.50
12875;BMP180;6505;51.114;13.128;2023-07-08T02:22:55;99927.00;;;24.50
12875;BMP180;6505;51.114;13.128;2023-07-08T02:25:23;99931.00;;;24.50
12875;BMP180;6505;51.114;13.128;2023-07-08T02:27:53;99934.00;;;24.40
12875;BMP180;6505;51.114;13.128;2023-07-08T02:30:24;99918.00;;;24.40
12875;BMP180;6505;51.114;13.128;2023-07-08T02:32:52;99925.00;;;24.40
12875;BMP180;6505;51.114;13.128;2023-07-08T02:35:26;99935.00;;;24.40
12875;BMP180;6505;51.114;13.128;2023-07-08T02:37:55;99928.00;;;24.30
12875;BMP180;6505;51.114;13.128;2023-07-08T02:40:25;99930.00;;;24.30
12875;BMP180;6505;51.114;13.128;2023-07-08T02:42:55;99934.00;;;24.30
12875;BMP180;6505;51.114;13.128;2023-07-08T02:45:23;99931.00;;;24.30
12875;BMP180;6505;51.114;13.128;2023-07-08T02:47:52;99927.00;;;24.30
12875;BMP180;6505;51.114;13.128;2023-07-08T02:50:20;99925.00;;;24.20
12875;BMP180;6505;51.114;13.128;2023-07-08T02:52:48;99934.00;;;24.20
12875;BMP180;6505;51.114;13.128;2023-07-08T02:55:16;99932.00;;;24.20
12875;BMP180;6505;51.114;13.128;2023-07-08T02:57:44;99928.00;;;24.20
12875;BMP180;6505;51.114;13.128;2023-07-08T03:00:15;99930.00;;;24.10
12875;BMP180;6505;51.114;13.128;2023-07-08T03:02:43;99934.00;;;24.10
12875;BMP180;6505;51.114;13.128;2023-07-08T03:05:11;99927.00;;;24.10
12875;BMP180;6505;51.114;13.128;2023-07-08T03:07:39;99931.00;;;24.10
12875;BMP180;6505;51.114;13.128;2023-07-08T03:10:08;99933.00;;;24.10
12875;BMP180;6505;51.114;13.128;2023-07-08T03:12:36;99931.00;;;24.00
12875;BMP180;6505;51.114;13.128;2023-07-08T03:15:06;99924.00;;;24.00
12875;BMP180;6505;51.114;13.128;2023-07-08T03:17:35;99930.00;;;24.00
12875;BMP180;6505;51.114;13.128;2023-07-08T03:20:04;99934.00;;;24.00
12875;BMP180;6505;51.114;13.128;2023-07-08T03:22:33;99934.00;;;24.00
12875;BMP180;6505;51.114;13.128;2023-07-08T03:25:01;99936.00;;;23.90
12875;BMP180;6505;51.114;13.128;2023-07-08T03:27:30;99937.00;;;23.90
12875;BMP180;6505;51.114;13.128;2023-07-08T03:29:58;99934.00;;;23.90
12875;BMP180;6505;51.114;13.128;2023-07-08T03:32:26;99936.00;;;23.90
12875;BMP180;6505;51.114;13.128;2023-07-08T03:34:55;99948.00;;;23.80
12875;BMP180;6505;51.114;13.128;2023-07-08T03:37:23;99944.00;;;23.80
12875;BMP180;6505;51.114;13.128;2023-07-08T03:39:51;99940.00;;;23.80
12875;BMP180;6505;51.114;13.128;2023-07-08T03:42:19;99938.00;;;23.80
12875;BMP180;6505;51.114;13.128;2023-07-08T03:44:47;99936.00;;;23.80
12875;BMP180;6505;51.114;13.128;2023-07-08T03:47:16;99938.00;;;23.80
12875;BMP180;6505;51.114;13.128;2023-07-08T03:49:44;99943.00;;;23.70
12875;BMP180;6505;51.114;13.128;2023-07-08T03:52:16;99939.00;;;23.70
12875;BMP180;6505;51.114;13.128;2023-07-08T03:54:45;99937.00;;;23.70
12875;BMP180;6505;51.114;13.128;2023-07-08T03:57:13;99942.00;;;23.70
12875;BMP180;6505;51.114;13.128;2023-07-08T03:59:42;99938.00;;;23.70
12875;BMP180;6505;51.114;13.128;2023-07-08T04:02:11;99939.00;;;23.70
12875;BMP180;6505;51.114;13.128;2023-07-08T04:04:39;99938.00;;;23.70
12875;BMP180;6505;51.114;13.128;2023-07-08T04:07:09;99939.00;;;23.70
12875;BMP180;6505;51.114;13.128;2023-07-08T04:09:40;99935.00;;;23.60
12875;BMP180;6505;51.114;13.128;2023-07-08T04:12:10;99934.00;;;23.60
12875;BMP180;6505;51.114;13.128;2023-07-08T04:14:38;99943.00;;;23.60
12875;BMP180;6505;51.114;13.128;2023-07-08T04:17:10;99940.00;;;23.60
12875;BMP180;6505;51.114;13.128;2023-07-08T04:19:39;99941.00;;;23.60
12875;BMP180;6505;51.114;13.128;2023-07-08T04:22:11;99941.00;;;23.60
12875;BMP180;6505;51.114;13.128;2023-07-08T04:24:40;99940.00;;;23.60
12875;BMP180;6505;51.114;13.128;2023-07-08T04:27:13;99942.00;;;23.50
12875;BMP180;6505;51.114;13.128;2023-07-08T04:29:43;99938.00;;;23.60
12875;BMP180;6505;51.114;13.128;2023-07-08T04:32:11;99947.00;;;23.60
12875;BMP180;6505;51.114;13.128;2023-07-08T04:34:39;99944.00;;;23.60
12875;BMP180;6505;51.114;13.128;2023-07-08T04:37:10;99940.00;;;23.60
12875;BMP180;6505;51.114;13.128;2023-07-08T04:39:40;99941.00;;;23.60
12875;BMP180;6505;51.114;13.128;2023-07-08T04:42:08;99940.00;;;23.60
12875;BMP180;6505;51.114;13.128;2023-07-08T04:44:36;99951.00;;;23.60
12875;BMP180;6505;51.114;13.128;2023-07-08T04:47:04;99959.00;;;23.70
12875;BMP180;6505;51.114;13.128;2023-07-08T04:49:33;99950.00;;;23.70
12875;BMP180;6505;51.114;13.128;2023-07-08T04:52:02;99944.00;;;23.70
12875;BMP180;6505;51.114;13.128;2023-07-08T04:54:30;99946.00;;;23.70
12875;BMP180;6505;51.114;13.128;2023-07-08T04:56:59;99953.00;;;23.70
12875;BMP180;6505;51.114;13.128;2023-07-08T04:59:27;99945.00;;;23.70
12875;BMP180;6505;51.114;13.128;2023-07-08T05:01:55;99952.00;;;23.80
12875;BMP180;6505;51.114;13.128;2023-07-08T05:04:23;99949.00;;;23.80
12875;BMP180;6505;51.114;13.128;2023-07-08T05:06:51;99946.00;;;23.80
12875;BMP180;6505;51.114;13.128;2023-07-08T05:09:19;99948.00;;;23.80
12875;BMP180;6505;51.114;13.128;2023-07-08T05:11:49;99948.00;;;23.90
12875;BMP180;6505;51.114;13.128;2023-07-08T05:14:18;99958.00;;;23.90
12875;BMP180;6505;51.114;13.128;2023-07-08T05:16:46;99958.00;;;23.90
12875;BMP180;6505;51.114;13.128;2023-07-08T05:19:15;99962.00;;;23.90
12875;BMP180;6505;51.114;13.128;2023-07-08T05:21:43;99960.00;;;24.00
12875;BMP180;6505;51.114;13.128;2023-07-08T05:24:11;99956.00;;;24.00
12875;BMP180;6505;51.114;13.128;2023-07-08T05:26:39;99968.00;;;24.10
12875;BMP180;6505;51.114;13.128;2023-07-08T05:29:07;99961.00;;;24.10
12875;BMP180;6505;51.114;13.128;2023-07-08T05:31:37;99972.00;;;24.10
12875;BMP180;6505;51.114;13.128;2023-07-08T05:34:15;99978.00;;;24.10
12875;BMP180;6505;51.114;13.128;2023-07-08T05:36:43;99975.00;;;24.20
12875;BMP180;6505;51.114;13.128;2023-07-08T05:39:11;99980.00;;;24.20
12875;BMP180;6505;51.114;13.128;2023-07-08T05:41:39;99977.00;;;24.20
12875;BMP180;6505;51.114;13.128;2023-07-08T05:44:07;99979.00;;;24.30
12875;BMP180;6505;51.114;13.128;2023-07-08T05:46:36;99984.00;;;24.30
12875;BMP180;6505;51.114;13.128;2023-07-08T05:49:04;99980.00;;;24.30
12875;BMP180;6505;51.114;13.128;2023-07-08T05:51:33;99982.00;;;24.40
12875;BMP180;6505;51.114;13.128;2023-07-08T05:54:01;99981.00;;;24.40
12875;BMP180;6505;51.114;13.128;2023-07-08T05:56:30;99979.00;;;24.50
12875;BMP180;6505;51.114;13.128;2023-07-08T05:59:00;99975.00;;;24.50
12875;BMP180;6505;51.114;13.128;2023-07-08T06:01:30;99976.00;;;24.50
12875;BMP180;6505;51.114;13.128;2023-07-08T06:04:03;99979.00;;;24.60
12875;BMP180;6505;51.114;13.128;2023-07-08T06:06:34;99980.00;;;24.70
12875;BMP180;6505;51.114;13.128;2023-07-08T06:09:04;99986.00;;;24.70
12875;BMP180;6505;51.114;13.128;2023-07-08T06:11:34;99984.00;;;24.70
12875;BMP180;6505;51.114;13.128;2023-07-08T06:14:05;99984.00;;;24.80
12875;BMP180;6505;51.114;13.128;2023-07-08T06:16:37;99983.00;;;24.80
12875;BMP180;6505;51.114;13.128;2023-07-08T06:19:11;99981.00;;;24.90
12875;BMP180;6505;51.114;13.128;2023-07-08T06:21:43;99975.00;;;24.90
12875;BMP180;6505;51.114;13.128;2023-07-08T06:24:16;99980.00;;;25.00
12875;BMP180;6505;51.114;13.128;2023-07-08T06:26:47;99980.00;;;25.00
12875;BMP180;6505;51.114;13.128;2023-07-08T06:29:20;99979.00;;;25.00
12875;BMP180;6505;51.114;13.128;2023-07-08T06:31:50;99981.00;;;25.10
12875;BMP180;6505;51.114;13.128;2023-07-08T06:34:23;99981.00;;;25.10
12875;BMP180;6505;51.114;13.128;2023-07-08T06:36:54;99986.00;;;25.20
12875;BMP180;6505;51.114;13.128;2023-07-08T06:39:24;99982.00;;;25.20
12875;BMP180;6505;51.114;13.128;2023-07-08T06:41:54;99983.00;;;25.20
12875;BMP180;6505;51.114;13.128;2023-07-08T06:44:29;99982.00;;;25.30
12875;BMP180;6505;51.114;13.128;2023-07-08T06:46:59;99968.00;;;25.30
12875;BMP180;6505;51.114;13.128;2023-07-08T06:49:32;99975.00;;;25.40
12875;BMP180;6505;51.114;13.128;2023-07-08T06:52:02;99971.00;;;25.40
12875;BMP180;6505;51.114;13.128;2023-07-08T06:54:33;99976.00;;;25.50
12875;BMP180;6505;51.114;13.128;2023-07-08T06:57:05;99979.00;;;25.50
12875;BMP180;6505;51.114;13.128;2023-07-08T06:59:37;99973.00;;;25.50
12875;BMP180;6505;51.114;13.128;2023-07-08T07:02:09;99970.00;;;25.60
12875;BMP180;6505;51.114;13.128;2023-07-08T07:04:41;99968.00;;;25.60
12875;BMP180;6505;51.114;13.128;2023-07-08T07:07:13;99978.00;;;25.70
12875;BMP180;6505;51.114;13.128;2023-07-08T07:09:43;99980.00;;;25.70
12875;BMP180;6505;51.114;13.128;2023-07-08T07:12:13;99977.00;;;25.70
12875;BMP180;6505;51.114;13.128;2023-07-08T07:14:43;99980.00;;;25.80
12875;BMP180;6505;51.114;13.128;2023-07-08T07:17:15;99977.00;;;25.80
12875;BMP180;6505;51.114;13.128;2023-07-08T07:19:47;99977.00;;;25.90
12875;BMP180;6505;51.114;13.128;2023-07-08T07:22:17;99973.00;;;25.90
12875;BMP180;6505;51.114;13.128;2023-07-08T07:24:47;99968.00;;;25.90
12875;BMP180;6505;51.114;13.128;2023-07-08T07:27:17;99969.00;;;26.00
12875;BMP180;6505;51.114;13.128;2023-07-08T07:29:51;99974.00;;;26.00
12875;BMP180;6505;51.114;13.128;2023-07-08T07:32:25;99972.00;;;26.10
12875;BMP180;6505;51.114;13.128;2023-07-08T07:35:00;99969.00;;;26.10
12875;BMP180;6505;51.114;13.128;2023-07-08T07:37:32;99974.00;;;26.20
12875;BMP180;6505;51.114;13.128;2023-07-08T07:40:05;99982.00;;;26.20
12875;BMP180;6505;51.114;13.128;2023-07-08T07:42:44;99978.00;;;26.30
12875;BMP180;6505;51.114;13.128;2023-07-08T07:45:16;99969.00;;;26.40
12875;BMP180;6505;51.114;13.128;2023-07-08T07:47:52;99964.00;;;26.40
12875;BMP180;6505;51.114;13.128;2023-07-08T07:50:25;99969.00;;;26.50
12875;BMP180;6505;51.114;13.128;2023-07-08T07:53:00;99974.00;;;26.60
12875;BMP180;6505;51.114;13.128;2023-07-08T07:55:33;99969.00;;;26.70
12875;BMP180;6505;51.114;13.128;2023-07-08T07:58:04;99968.00;;;26.80
12875;BMP180;6505;51.114;13.128;2023-07-08T08:00:35;99975.00;;;26.80
12875;BMP180;6505;51.114;13.128;2023-07-08T08:03:06;99968.00;;;26.90
12875;BMP180;6505;51.114;13.128;2023-07-08T08:05:39;99970.00;;;27.00
12875;BMP180;6505;51.114;13.128;2023-07-08T08:08:11;99968.00;;;27.10
12875;BMP180;6505;51.114;13.128;2023-07-08T08:10:44;99980.00;;;27.20
12875;BMP180;6505;51.114;13.128;2023-07-08T08:13:15;99972.00;;;27.30
12875;BMP180;6505;51.114;13.128;2023-07-08T08:15:49;99968.00;;;27.40
12875;BMP180;6505;51.114;13.128;2023-07-08T08:18:29;99968.00;;;27.50
12875;BMP180;6505;51.114;13.128;2023-07-08T08:21:04;99976.00;;;27.50
12875;BMP180;6505;51.114;13.128;2023-07-08T08:23:38;99968.00;;;27.70
12875;BMP180;6505;51.114;13.128;2023-07-08T08:26:11;99979.00;;;27.70
12875;BMP180;6505;51.114;13.128;2023-07-08T08:28:45;99975.00;;;27.80
12875;BMP180;6505;51.114;13.128;2023-07-08T08:31:18;99974.00;;;28.00
12875;BMP180;6505;51.114;13.128;2023-07-08T08:33:53;99973.00;;;28.00
12875;BMP180;6505;51.114;13.128;2023-07-08T08:36:27;99970.00;;;28.10
12875;BMP180;6505;51.114;13.128;2023-07-08T08:39:01;99975.00;;;28.20
12875;BMP180;6505;51.114;13.128;2023-07-08T08:41:37;99974.00;;;28.30
12875;BMP180;6505;51.114;13.128;2023-07-08T08:44:16;99971.00;;;28.40
12875;BMP180;6505;51.114;13.128;2023-07-08T08:47:02;99976.00;;;28.50
12875;BMP180;6505;51.114;13.128;2023-07-08T08:49:43;99957.00;;;28.60
12875;BMP180;6505;51.114;13.128;2023-07-08T08:52:20;99971.00;;;28.60
12875;BMP180;6505;51.114;13.128;2023-07-08T08:54:51;99974.00;;;28.80
12875;BMP180;6505;51.114;13.128;2023-07-08T08:57:38;99973.00;;;28.80
12875;BMP180;6505;51.114;13.128;2023-07-08T09:00:21;99975.00;;;28.90
12875;BMP180;6505;51.114;13.128;2023-07-08T09:03:04;99970.00;;;29.00
12875;BMP180;6505;51.114;13.128;2023-07-08T09:05:37;99972.00;;;29.10
12875;BMP180;6505;51.114;13.128;2023-07-08T09:08:21;99970.00;;;29.10
12875;BMP180;6505;51.114;13.128;2023-07-08T09:11:01;99979.00;;;29.20
12875;BMP180;6505;51.114;13.128;2023-07-08T09:13:35;99976.00;;;29.30
12875;BMP180;6505;51.114;13.128;2023-07-08T09:16:15;99975.00;;;29.40
12875;BMP180;6505;51.114;13.128;2023-07-08T09:18:59;99975.00;;;29.40
12875;BMP180;6505;51.114;13.128;2023-07-08T09:21:40;99982.00;;;29.50
12875;BMP180;6505;51.114;13.128;2023-07-08T09:24:20;99975.00;;;29.50
12875;BMP180;6505;51.114;13.128;2023-07-08T09:26:55;99965.00;;;29.60
12875;BMP180;6505;51.114;13.128;2023-07-08T09:29:27;99974.00;;;29.70
12875;BMP180;6505;51.114;13.128;2023-07-08T09:31:59;99970.00;;;29.70
12875;BMP180;6505;51.114;13.128;2023-07-08T09:34:43;99972.00;;;29.70
12875;BMP180;6505;51.114;13.128;2023-07-08T09:37:26;99961.00;;;29.80
12875;BMP180;6505;51.114;13.128;2023-07-08T09:40:15;99962.00;;;29.80
12875;BMP180;6505;51.114;13.128;2023-07-08T09:42:50;99966.00;;;29.80
12875;BMP180;6505;51.114;13.128;2023-07-08T09:45:23;99970.00;;;29.90
12875;BMP180;6505;51.114;13.128;2023-07-08T09:47:55;99968.00;;;29.90
12875;BMP180;6505;51.114;13.128;2023-07-08T09:50:28;99966.00;;;29.90
12875;BMP180;6505;51.114;13.128;2023-07-08T09:53:00;99963.00;;;30.00
12875;BMP180;6505;51.114;13.128;2023-07-08T09:55:33;99961.00;;;30.00
12875;BMP180;6505;51.114;13.128;2023-07-08T09:58:03;99962.00;;;30.00
12875;BMP180;6505;51.114;13.128;2023-07-08T10:00:40;99966.00;;;30.00
12875;BMP180;6505;51.114;13.128;2023-07-08T10:03:17;99962.00;;;30.00
12875;BMP180;6505;51.114;13.128;2023-07-08T10:05:51;99966.00;;;30.00
12875;BMP180;6505;51.114;13.128;2023-07-08T10:08:37;99970.00;;;30.00
12875;BMP180;6505;51.114;13.128;2023-07-08T10:11:25;99964.00;;;30.00
12875;BMP180;6505;51.114;13.128;2023-07-08T10:14:04;99967.00;;;30.10
12875;BMP180;6505;51.114;13.128;2023-07-08T10:16:42;99961.00;;;30.10
12875;BMP180;6505;51.114;13.128;2023-07-08T10:19:16;99974.00;;;30.10
12875;BMP180;6505;51.114;13.128;2023-07-08T10:21:57;99968.00;;;30.10
12875;BMP180;6505;51.114;13.128;2023-07-08T10:24:44;99967.00;;;30.10
12875;BMP180;6505;51.114;13.128;2023-07-08T10:27:28;99969.00;;;30.10
12875;BMP180;6505;51.114;13.128;2023-07-08T10:30:17;99962.00;;;30.10
12875;BMP180;6505;51.114;13.128;2023-07-08T10:33:22;99959.00;;;30.10
12875;BMP180;6505;51.114;13.128;2023-07-08T10:36:09;99953.00;;;30.10
12875;BMP180;6505;51.114;13.128;2023-07-08T10:38:59;99958.00;;;30.10
12875;BMP180;6505;51.114;13.128;2023-07-08T10:41:52;99955.00;;;30.10
12875;BMP180;6505;51.114;13.128;2023-07-08T10:44:36;99966.00;;;30.10
12875;BMP180;6505;51.114;13.128;2023-07-08T10:47:28;99952.00;;;30.10
12875;BMP180;6505;51.114;13.128;2023-07-08T10:50:25;99961.00;;;30.10
12875;BMP180;6505;51.114;13.128;2023-07-08T10:53:23;99946.00;;;30.10
12875;BMP180;6505;51.114;13.128;2023-07-08T10:56:03;99954.00;;;30.10
12875;BMP180;6505;51.114;13.128;2023-07-08T10:59:17;99951.00;;;30.10
12875;BMP180;6505;51.114;13.128;2023-07-08T11:02:19;99953.00;;;30.10
12875;BMP180;6505;51.114;13.128;2023-07-08T11:05:11;99952.00;;;30.10
12875;BMP180;6505;51.114;13.128;2023-07-08T11:07:53;99952.00;;;30.20
12875;BMP180;6505;51.114;13.128;2023-07-08T11:10:34;99949.00;;;30.20
12875;BMP180;6505;51.114;13.128;2023-07-08T11:13:13;99935.00;;;30.10
12875;BMP180;6505;51.114;13.128;2023-07-08T11:15:51;99940.00;;;30.20
12875;BMP180;6505;51.114;13.128;2023-07-08T11:18:32;99929.00;;;30.20
12875;BMP180;6505;51.114;13.128;2023-07-08T11:21:12;99936.00;;;30.20
12875;BMP180;6505;51.114;13.128;2023-07-08T11:23:50;99936.00;;;30.20
12875;BMP180;6505;51.114;13.128;2023-07-08T11:26:29;99930.00;;;30.20
12875;BMP180;6505;51.114;13.128;2023-07-08T11:29:17;99931.00;;;30.20
12875;BMP180;6505;51.114;13.128;2023-07-08T11:31:54;99934.00;;;30.20
12875;BMP180;6505;51.114;13.128;2023-07-08T11:34:35;99929.00;;;30.20
12875;BMP180;6505;51.114;13.128;2023-07-08T11:37:08;99933.00;;;30.20
12875;BMP180;6505;51.114;13.128;2023-07-08T11:39:45;99926.00;;;30.30
12875;BMP180;6505;51.114;13.128;2023-07-08T11:42:30;99926.00;;;30.20
12875;BMP180;6505;51.114;13.128;2023-07-08T11:45:27;99931.00;;;30.20
12875;BMP180;6505;51.114;13.128;2023-07-08T11:48:12;99926.00;;;30.30
12875;BMP180;6505;51.114;13.128;2023-07-08T11:50:48;99923.00;;;30.30
12875;BMP180;6505;51.114;13.128;2023-07-08T11:53:47;99918.00;;;30.20
12875;BMP180;6505;51.114;13.128;2023-07-08T11:56:24;99915.00;;;30.30
12875;BMP180;6505;51.114;13.128;2023-07-08T11:59:11;99915.00;;;30.20
12875;BMP180;6505;51.114;13.128;2023-07-08T12:01:51;99916.00;;;30.30
12875;BMP180;6505;51.114;13.128;2023-07-08T12:04:31;99908.00;;;30.30
12875;BMP180;6505;51.114;13.128;2023-07-08T12:07:16;99913.00;;;30.30
12875;BMP180;6505;51.114;13.128;2023-07-08T12:09:48;99906.00;;;30.30
12875;BMP180;6505;51.114;13.128;2023-07-08T12:12:24;99916.00;;;30.30
12875;BMP180;6505;51.114;13.128;2023-07-08T12:15:04;99905.00;;;30.30
12875;BMP180;6505;51.114;13.128;2023-07-08T12:17:33;99908.00;;;30.30
12875;BMP180;6505;51.114;13.128;2023-07-08T12:20:07;99909.00;;;30.30
12875;BMP180;6505;51.114;13.128;2023-07-08T12:22:41;99905.00;;;30.40
12875;BMP180;6505;51.114;13.128;2023-07-08T12:25:14;99905.00;;;30.40
12875;BMP180;6505;51.114;13.128;2023-07-08T12:27:44;99910.00;;;30.40
12875;BMP180;6505;51.114;13.128;2023-07-08T12:30:17;99907.00;;;30.40
12875;BMP180;6505;51.114;13.128;2023-07-08T12:32:45;99906.00;;;30.40
12875;BMP180;6505;51.114;13.128;2023-07-08T12:35:22;99900.00;;;30.40
12875;BMP180;6505;51.114;13.128;2023-07-08T12:37:56;99896.00;;;30.40
12875;BMP180;6505;51.114;13.128;2023-07-08T12:40:27;99890.00;;;30.40
12875;BMP180;6505;51.114;13.128;2023-07-08T12:42:57;99884.00;;;30.40
12875;BMP180;6505;51.114;13.128;2023-07-08T12:45:30;99893.00;;;30.40
12875;BMP180;6505;51.114;13.128;2023-07-08T12:47:58;99888.00;;;30.40
12875;BMP180;6505;51.114;13.128;2023-07-08T12:50:26;99886.00;;;30.50
12875;BMP180;6505;51.114;13.128;2023-07-08T12:52:56;99897.00;;;30.50
12875;BMP180;6505;51.114;13.128;2023-07-08T12:55:25;99897.00;;;30.50
12875;BMP180;6505;51.114;13.128;2023-07-08T12:57:54;99886.00;;;30.50
12875;BMP180;6505;51.114;13.128;2023-07-08T13:00:29;99886.00;;;30.50
12875;BMP180;6505;51.114;13.128;2023-07-08T13:03:05;99887.00;;;30.50
12875;BMP180;6505;51.114;13.128;2023-07-08T13:05:34;99883.00;;;30.50
12875;BMP180;6505;51.114;13.128;2023-07-08T13:08:07;99883.00;;;30.50
12875;BMP180;6505;51.114;13.128;2023-07-08T13:10:36;99887.00;;;30.50
12875;BMP180;6505;51.114;13.128;2023-07-08T13:13:10;99883.00;;;30.50
12875;BMP180;6505;51.114;13.128;2023-07-08T13:15:41;99873.00;;;30.50
12875;BMP180;6505;51.114;13.128;2023-07-08T13:18:15;99883.00;;;30.50
12875;BMP180;6505;51.114;13.128;2023-07-08T13:20:47;99886.00;;;30.50
12875;BMP180;6505;51.114;13.128;2023-07-08T13:23:19;99889.00;;;30.50
12875;BMP180;6505;51.114;13.128;2023-07-08T13:25:51;99888.00;;;30.60
12875;BMP180;6505;51.114;13.128;2023-07-08T13:28:24;99879.00;;;30.50
12875;BMP180;6505;51.114;13.128;2023-07-08T13:30:55;99883.00;;;30.60
12875;BMP180;6505;51.114;13.128;2023-07-08T13:33:24;99872.00;;;30.60
12875;BMP180;6505;51.114;13.128;2023-07-08T13:35:52;99875.00;;;30.60
12875;BMP180;6505;51.114;13.128;2023-07-08T13:38:32;99871.00;;;30.60
12875;BMP180;6505;51.114;13.128;2023-07-08T13:41:04;99877.00;;;30.60
12875;BMP180;6505;51.114;13.128;2023-07-08T13:43:35;99872.00;;;30.60
12875;BMP180;6505;51.114;13.128;2023-07-08T13:46:04;99874.00;;;30.60
12875;BMP180;6505;51.114;13.128;2023-07-08T13:48:37;99868.00;;;30.60
12875;BMP180;6505;51.114;13.128;2023-07-08T13:51:11;99862.00;;;30.60
12875;BMP180;6505;51.114;13.128;2023-07-08T13:53:50;99868.00;;;30.60
12875;BMP180;6505;51.114;13.128;2023-07-08T13:56:21;99862.00;;;30.60
12875;BMP180;6505;51.114;13.128;2023-07-08T13:58:52;99859.00;;;30.60
12875;BMP180;6505;51.114;13.128;2023-07-08T14:01:23;99863.00;;;30.70
12875;BMP180;6505;51.114;13.128;2023-07-08T14:03:55;99851.00;;;30.60
12875;BMP180;6505;51.114;13.128;2023-07-08T14:06:29;99861.00;;;30.70
12875;BMP180;6505;51.114;13.128;2023-07-08T14:09:09;99851.00;;;30.60
12875;BMP180;6505;51.114;13.128;2023-07-08T14:11:39;99862.00;;;30.70
12875;BMP180;6505;51.114;13.128;2023-07-08T14:14:08;99862.00;;;30.70
12875;BMP180;6505;51.114;13.128;2023-07-08T14:16:40;99858.00;;;30.70
12875;BMP180;6505;51.114;13.128;2023-07-08T14:19:14;99859.00;;;30.70
12875;BMP180;6505;51.114;13.128;2023-07-08T14:21:43;99857.00;;;30.80
12875;BMP180;6505;51.114;13.128;2023-07-08T14:24:14;99846.00;;;30.70
12875;BMP180;6505;51.114;13.128;2023-07-08T14:26:44;99853.00;;;30.80
12875;BMP180;6505;51.114;13.128;2023-07-08T14:29:13;99855.00;;;30.80
12875;BMP180;6505;51.114;13.128;2023-07-08T14:31:42;99853.00;;;30.80
12875;BMP180;6505;51.114;13.128;2023-07-08T14:34:17;99850.00;;;30.80
12875;BMP180;6505;51.114;13.128;2023-07-08T14:36:48;99853.00;;;30.80
12875;BMP180;6505;51.114;13.128;2023-07-08T14:39:19;99858.00;;;30.80
12875;BMP180;6505;51.114;13.128;2023-07-08T14:41:49;99851.00;;;30.80
12875;BMP180;6505;51.114;13.128;2023-07-08T14:44:21;99848.00;;;30.80